sensor_id;sensor_type;location;lat;lon;timestamp;temperature;humidity
2054;DHT22;1032;52.542;13.440;2023-09-07T00:00:29;20.40;99.60
2054;DHT22;1032;52.542;13.440;2023-09-07T00:02:56;20.40;99.70
2054;DHT22;1032;52.542;13.440;2023-09-07T00:05:22;20.40;99.80
2054;DHT22;1032;52.542;13.440;2023-09-07T00:07:49;20.40;99.90
2054;DHT22;1032;52.542;13.440;2023-09-07T00:10:16;20.30;99.90
2054;DHT22;1032;52.542;13.440;2023-09-07T00:12:43;20.30;99.90
2054;DHT22;1032;52.542;13.440;2023-09-07T00:15:11;20.20;99.90
2054;DHT22;1032;52.542;13.440;2023-09-07T00:17:38;20.20;99.90
2054;DHT22;1032;52.542;13.440;2023-09-07T00:20:05;20.10;99.90
2054;DHT22;1032;52.542;13.440;2023-09-07T00:22:36;20.10;99.90
2054;DHT22;1032;52.542;13.440;2023-09-07T00:25:03;20.00;99.90
2054;DHT22;1032;52.542;13.440;2023-09-07T00:27:32;20.00;99.90
2054;DHT22;1032;52.542;13.440;2023-09-07T00:29:58;20.00;99.90
2054;DHT22;1032;52.542;13.440;2023-09-07T00:32:26;19.90;99.90
2054;DHT22;1032;52.542;13.440;2023-09-07T00:34:53;19.90;99.90
2054;DHT22;1032;52.542;13.440;2023-09-07T00:37:19;19.20;99.90
2054;DHT22;1032;52.542;13.440;2023-09-07T00:39:46;19.80;99.90
2054;DHT22;1032;52.542;13.440;2023-09-07T00:42:13;19.80;99.90
2054;DHT22;1032;52.542;13.440;2023-09-07T00:44:39;19.80;99.90
2054;DHT22;1032;52.542;13.440;2023-09-07T00:47:06;19.70;99.90
2054;DHT22;1032;52.542;13.440;2023-09-07T00:49:34;19.60;99.90
2054;DHT22;1032;52.542;13.440;2023-09-07T00:52:01;19.60;99.90
2054;DHT22;1032;52.542;13.440;2023-09-07T00:54:28;19.60;99.90
2054;DHT22;1032;52.542;13.440;2023-09-07T00:56:56;19.50;99.90
2054;DHT22;1032;52.542;13.440;2023-09-07T00:59:23;19.50;99.90
2054;DHT22;1032;52.542;13.440;2023-09-07T01:01:49;19.40;99.90
2054;DHT22;1032;52.542;13.440;2023-09-07T01:04:18;19.40;99.90
2054;DHT22;1032;52.542;13.440;2023-09-07T01:06:51;19.40;99.90
2054;DHT22;1032;52.542;13.440;2023-09-07T01:09:21;19.40;99.90
2054;DHT22;1032;52.542;13.440;2023-09-07T01:11:48;19.40;99.90
2054;DHT22;1032;52.542;13.440;2023-09-07T01:14:15;19.60;99.90
2054;DHT22;1032;52.542;13.440;2023-09-07T01:16:42;19.40;99.90
2054;DHT22;1032;52.542;13.440;2023-09-07T01:19:09;19.30;99.90
2054;DHT22;1032;52.542;13.440;2023-09-07T01:21:38;19.30;99.90
2054;DHT22;1032;52.542;13.440;2023-09-07T01:24:07;19.30;99.90
2054;DHT22;1032;52.542;13.440;2023-09-07T01:26:34;19.30;99.90
2054;DHT22;1032;52.542;13.440;2023-09-07T01:29:04;19.20;99.90
2054;DHT22;1032;52.542;13.440;2023-09-07T01:31:34;19.20;99.90
2054;DHT22;1032;52.542;13.440;2023-09-07T01:34:01;19.10;99.90
2054;DHT22;1032;52.542;13.440;2023-09-07T01:36:28;19.10;99.90
2054;DHT22;1032;52.542;13.440;2023-09-07T01:38:56;19.10;99.90
2054;DHT22;1032;52.542;13.440;2023-09-07T01:41:23;19.10;99.90
2054;DHT22;1032;52.542;13.440;2023-09-07T01:43:50;19.10;99.90
2054;DHT22;1032;52.542;13.440;2023-09-07T01:46:17;19.10;99.90
2054;DHT22;1032;52.542;13.440;2023-09-07T01:48:44;19.10;99.90
2054;DHT22;1032;52.542;13.440;2023-09-07T01:51:11;19.00;99.90
2054;DHT22;1032;52.542;13.440;2023-09-07T01:53:37;18.90;99.90
2054;DHT22;1032;52.542;13.440;2023-09-07T01:56:05;18.80;99.90
2054;DHT22;1032;52.542;13.440;2023-09-07T01:58:33;18.90;99.90
2054;DHT22;1032;52.542;13.440;2023-09-07T02:01:00;18.90;99.90
2054;DHT22;1032;52.542;13.440;2023-09-07T02:03:27;18.80;99.90
2054;DHT22;1032;52.542;13.440;2023-09-07T02:05:54;18.70;99.90
2054;DHT22;1032;52.542;13.440;2023-09-07T02:08:20;18.80;99.90
2054;DHT22;1032;52.542;13.440;2023-09-07T02:10:47;18.80;99.90
2054;DHT22;1032;52.542;13.440;2023-09-07T02:13:15;18.90;99.90
2054;DHT22;1032;52.542;13.440;2023-09-07T02:15:41;18.80;99.90
2054;DHT22;1032;52.542;13.440;2023-09-07T02:18:08;18.80;99.90
2054;DHT22;1032;52.542;13.440;2023-09-07T02:20:35;18.80;99.90
2054;DHT22;1032;52.542;13.440;2023-09-07T02:23:01;18.80;99.90
2054;DHT22;1032;52.542;13.440;2023-09-07T02:25:28;18.70;99.90
2054;DHT22;1032;52.542;13.440;2023-09-07T02:27:57;18.70;99.90
2054;DHT22;1032;52.542;13.440;2023-09-07T02:30:25;18.70;99.90
2054;DHT22;1032;52.542;13.440;2023-09-07T02:32:51;18.70;99.90
2054;DHT22;1032;52.542;13.440;2023-09-07T02:35:18;18.60;99.90
2054;DHT22;1032;52.542;13.440;2023-09-07T02:37:45;18.60;99.90
2054;DHT22;1032;52.542;13.440;2023-09-07T02:40:12;18.50;99.90
2054;DHT22;1032;52.542;13.440;2023-09-07T02:42:41;18.60;99.90
2054;DHT22;1032;52.542;13.440;2023-09-07T02:45:10;18.60;99.90
2054;DHT22;1032;52.542;13.440;2023-09-07T02:47:38;18.70;99.90
2054;DHT22;1032;52.542;13.440;2023-09-07T02:50:05;18.70;99.90
2054;DHT22;1032;52.542;13.440;2023-09-07T02:52:32;18.70;99.90
2054;DHT22;1032;52.542;13.440;2023-09-07T02:54:59;18.70;99.90
2054;DHT22;1032;52.542;13.440;2023-09-07T02:57:26;18.80;99.90
2054;DHT22;1032;52.542;13.440;2023-09-07T02:59:53;18.80;99.90
2054;DHT22;1032;52.542;13.440;2023-09-07T03:02:20;18.80;99.90
2054;DHT22;1032;52.542;13.440;2023-09-07T03:04:52;18.80;99.90
2054;DHT22;1032;52.542;13.440;2023-09-07T03:07:19;18.80;99.90
2054;DHT22;1032;52.542;13.440;2023-09-07T03:09:46;18.90;99.90
2054;DHT22;1032;52.542;13.440;2023-09-07T03:12:13;18.90;99.90
2054;DHT22;1032;52.542;13.440;2023-09-07T03:14:42;18.90;99.90
2054;DHT22;1032;52.542;13.440;2023-09-07T03:17:09;18.90;99.90
2054;DHT22;1032;52.542;13.440;2023-09-07T03:19:36;19.00;99.90
2054;DHT22;1032;52.542;13.440;2023-09-07T03:22:04;18.80;99.90
2054;DHT22;1032;52.542;13.440;2023-09-07T03:24:31;18.80;99.90
2054;DHT22;1032;52.542;13.440;2023-09-07T03:26:58;18.90;99.90
2054;DHT22;1032;52.542;13.440;2023-09-07T03:29:25;18.80;99.90
2054;DHT22;1032;52.542;13.440;2023-09-07T03:31:52;18.80;99.90
2054;DHT22;1032;52.542;13.440;2023-09-07T03:34:18;18.80;99.90
2054;DHT22;1032;52.542;13.440;2023-09-07T03:36:46;18.70;99.90
2054;DHT22;1032;52.542;13.440;2023-09-07T03:39:14;18.80;99.90
2054;DHT22;1032;52.542;13.440;2023-09-07T03:41:40;18.80;99.90
2054;DHT22;1032;52.542;13.440;2023-09-07T03:44:07;18.80;99.90
2054;DHT22;1032;52.542;13.440;2023-09-07T03:46:34;18.70;99.90
2054;DHT22;1032;52.542;13.440;2023-09-07T03:49:01;18.70;99.90
2054;DHT22;1032;52.542;13.440;2023-09-07T03:51:27;18.70;99.90
2054;DHT22;1032;52.542;13.440;2023-09-07T03:53:54;18.90;99.90
2054;DHT22;1032;52.542;13.440;2023-09-07T03:56:22;18.70;99.90
2054;DHT22;1032;52.542;13.440;2023-09-07T03:58:49;18.70;99.90
2054;DHT22;1032;52.542;13.440;2023-09-07T04:01:16;18.70;99.90
2054;DHT22;1032;52.542;13.440;2023-09-07T04:03:42;18.70;99.90
2054;DHT22;1032;52.542;13.440;2023-09-07T04:06:09;18.70;99.90
2054;DHT22;1032;52.542;13.440;2023-09-07T04:08:37;18.60;99.90
2054;DHT22;1032;52.542;13.440;2023-09-07T04:11:04;18.60;99.90
2054;DHT22;1032;52.542;13.440;2023-09-07T04:13:32;18.80;99.90
2054;DHT22;1032;52.542;13.440;2023-09-07T04:15:59;18.50;99.90
2054;DHT22;1032;52.542;13.440;2023-09-07T04:18:26;18.60;99.90
2054;DHT22;1032;52.542;13.440;2023-09-07T04:20:52;18.40;99.90
2054;DHT22;1032;52.542;13.440;2023-09-07T04:23:19;18.60;99.90
2054;DHT22;1032;52.542;13.440;2023-09-07T04:25:46;18.60;99.90
2054;DHT22;1032;52.542;13.440;2023-09-07T04:28:13;18.60;99.90
2054;DHT22;1032;52.542;13.440;2023-09-07T04:30:41;18.50;99.90
2054;DHT22;1032;52.542;13.440;2023-09-07T04:33:08;18.60;99.90
2054;DHT22;1032;52.542;13.440;2023-09-07T04:35:37;18.50;99.90
2054;DHT22;1032;52.542;13.440;2023-09-07T04:38:03;18.70;99.90
2054;DHT22;1032;52.542;13.440;2023-09-07T04:40:31;18.50;99.90
2054;DHT22;1032;52.542;13.440;2023-09-07T04:42:57;18.70;99.90
2054;DHT22;1032;52.542;13.440;2023-09-07T04:45:24;18.60;99.90
2054;DHT22;1032;52.542;13.440;2023-09-07T04:47:52;18.60;99.90
2054;DHT22;1032;52.542;13.440;2023-09-07T04:50:19;18.50;99.90
2054;DHT22;1032;52.542;13.440;2023-09-07T04:52:45;18.60;99.90
2054;DHT22;1032;52.542;13.440;2023-09-07T04:55:12;18.60;99.90
2054;DHT22;1032;52.542;13.440;2023-09-07T04:57:39;18.60;99.90
2054;DHT22;1032;52.542;13.440;2023-09-07T05:00:07;18.60;99.90
2054;DHT22;1032;52.542;13.440;2023-09-07T05:02:34;18.60;99.90
2054;DHT22;1032;52.542;13.440;2023-09-07T05:05:06;18.60;99.90
2054;DHT22;1032;52.542;13.440;2023-09-07T05:07:33;18.60;99.90
2054;DHT22;1032;52.542;13.440;2023-09-07T05:09:59;18.50;99.90
2054;DHT22;1032;52.542;13.440;2023-09-07T05:12:26;18.60;99.90
2054;DHT22;1032;52.542;13.440;2023-09-07T05:14:53;18.60;99.90
2054;DHT22;1032;52.542;13.440;2023-09-07T05:17:19;18.70;99.90
2054;DHT22;1032;52.542;13.440;2023-09-07T05:19:47;18.70;99.90
2054;DHT22;1032;52.542;13.440;2023-09-07T05:22:15;18.70;99.90
2054;DHT22;1032;52.542;13.440;2023-09-07T05:24:42;18.70;99.90
2054;DHT22;1032;52.542;13.440;2023-09-07T05:27:12;18.70;99.90
2054;DHT22;1032;52.542;13.440;2023-09-07T05:29:39;18.80;99.90
2054;DHT22;1032;52.542;13.440;2023-09-07T05:32:05;18.70;99.90
2054;DHT22;1032;52.542;13.440;2023-09-07T05:34:32;18.80;99.90
2054;DHT22;1032;52.542;13.440;2023-09-07T05:36:59;18.90;99.90
2054;DHT22;1032;52.542;13.440;2023-09-07T05:39:27;18.90;99.90
2054;DHT22;1032;52.542;13.440;2023-09-07T05:41:54;19.10;99.90
2054;DHT22;1032;52.542;13.440;2023-09-07T05:44:21;19.10;99.90
2054;DHT22;1032;52.542;13.440;2023-09-07T05:46:47;19.40;99.90
2054;DHT22;1032;52.542;13.440;2023-09-07T05:49:14;19.40;99.90
2054;DHT22;1032;52.542;13.440;2023-09-07T05:51:41;19.40;99.90
2054;DHT22;1032;52.542;13.440;2023-09-07T05:54:08;19.40;99.90
2054;DHT22;1032;52.542;13.440;2023-09-07T05:56:36;19.30;99.90
2054;DHT22;1032;52.542;13.440;2023-09-07T05:59:02;19.50;99.90
2054;DHT22;1032;52.542;13.440;2023-09-07T06:01:29;19.30;99.90
2054;DHT22;1032;52.542;13.440;2023-09-07T06:03:56;19.70;99.90
2054;DHT22;1032;52.542;13.440;2023-09-07T06:06:22;19.80;99.90
2054;DHT22;1032;52.542;13.440;2023-09-07T06:08:49;19.80;99.90
2054;DHT22;1032;52.542;13.440;2023-09-07T06:11:16;20.00;99.90
2054;DHT22;1032;52.542;13.440;2023-09-07T06:13:44;20.00;99.90
2054;DHT22;1032;52.542;13.440;2023-09-07T06:16:12;20.10;99.90
2054;DHT22;1032;52.542;13.440;2023-09-07T06:18:39;20.10;99.90
2054;DHT22;1032;52.542;13.440;2023-09-07T06:21:05;20.20;99.90
2054;DHT22;1032;52.542;13.440;2023-09-07T06:23:32;20.30;99.90
2054;DHT22;1032;52.542;13.440;2023-09-07T06:25:59;20.20;99.90
2054;DHT22;1032;52.542;13.440;2023-09-07T06:28:26;20.40;99.90
2054;DHT22;1032;52.542;13.440;2023-09-07T06:30:55;20.40;99.90
2054;DHT22;1032;52.542;13.440;2023-09-07T06:33:22;20.50;99.90
2054;DHT22;1032;52.542;13.440;2023-09-07T06:35:48;20.30;99.90
2054;DHT22;1032;52.542;13.440;2023-09-07T06:38:15;20.60;99.90
2054;DHT22;1032;52.542;13.440;2023-09-07T06:40:47;20.80;99.90
2054;DHT22;1032;52.542;13.440;2023-09-07T06:43:14;20.60;99.90
2054;DHT22;1032;52.542;13.440;2023-09-07T06:45:41;20.80;99.90
2054;DHT22;1032;52.542;13.440;2023-09-07T06:48:09;20.90;99.90
2054;DHT22;1032;52.542;13.440;2023-09-07T06:50:38;20.90;99.90
2054;DHT22;1032;52.542;13.440;2023-09-07T06:53:04;21.00;99.90
2054;DHT22;1032;52.542;13.440;2023-09-07T06:55:31;21.00;99.90
2054;DHT22;1032;52.542;13.440;2023-09-07T06:57:58;21.10;99.90
2054;DHT22;1032;52.542;13.440;2023-09-07T07:00:26;21.20;99.90
2054;DHT22;1032;52.542;13.440;2023-09-07T07:02:53;21.20;99.90
2054;DHT22;1032;52.542;13.440;2023-09-07T07:05:21;21.20;99.90
2054;DHT22;1032;52.542;13.440;2023-09-07T07:07:49;21.30;99.90
2054;DHT22;1032;52.542;13.440;2023-09-07T07:10:16;21.30;99.90
2054;DHT22;1032;52.542;13.440;2023-09-07T07:12:42;21.40;99.90
2054;DHT22;1032;52.542;13.440;2023-09-07T07:15:09;21.40;99.90
2054;DHT22;1032;52.542;13.440;2023-09-07T07:17:37;21.40;99.90
2054;DHT22;1032;52.542;13.440;2023-09-07T07:20:05;21.40;99.90
2054;DHT22;1032;52.542;13.440;2023-09-07T07:22:33;21.50;99.70
2054;DHT22;1032;52.542;13.440;2023-09-07T07:25:01;21.50;99.70
2054;DHT22;1032;52.542;13.440;2023-09-07T07:27:31;21.60;99.70
2054;DHT22;1032;52.542;13.440;2023-09-07T07:29:58;21.60;99.60
2054;DHT22;1032;52.542;13.440;2023-09-07T07:32:24;21.60;99.30
2054;DHT22;1032;52.542;13.440;2023-09-07T07:34:51;21.70;99.10
2054;DHT22;1032;52.542;13.440;2023-09-07T07:37:18;21.80;99.00
2054;DHT22;1032;52.542;13.440;2023-09-07T07:39:46;21.80;98.80
2054;DHT22;1032;52.542;13.440;2023-09-07T07:42:13;21.80;98.80
2054;DHT22;1032;52.542;13.440;2023-09-07T07:44:41;21.90;98.70
2054;DHT22;1032;52.542;13.440;2023-09-07T07:47:08;22.00;98.60
2054;DHT22;1032;52.542;13.440;2023-09-07T07:49:35;21.90;98.50
2054;DHT22;1032;52.542;13.440;2023-09-07T07:52:02;22.00;98.50
2054;DHT22;1032;52.542;13.440;2023-09-07T07:54:29;22.00;98.50
2054;DHT22;1032;52.542;13.440;2023-09-07T07:57:00;21.80;98.30
2054;DHT22;1032;52.542;13.440;2023-09-07T07:59:27;21.80;98.10
2054;DHT22;1032;52.542;13.440;2023-09-07T08:01:54;22.10;98.10
2054;DHT22;1032;52.542;13.440;2023-09-07T08:04:21;22.00;97.80
2054;DHT22;1032;52.542;13.440;2023-09-07T08:06:48;22.20;97.80
2054;DHT22;1032;52.542;13.440;2023-09-07T08:09:14;22.20;97.60
2054;DHT22;1032;52.542;13.440;2023-09-07T08:11:41;22.20;97.40
2054;DHT22;1032;52.542;13.440;2023-09-07T08:14:10;22.30;97.20
2054;DHT22;1032;52.542;13.440;2023-09-07T08:16:37;22.40;97.00
2054;DHT22;1032;52.542;13.440;2023-09-07T08:19:04;22.40;96.90
2054;DHT22;1032;52.542;13.440;2023-09-07T08:21:30;22.40;96.80
2054;DHT22;1032;52.542;13.440;2023-09-07T08:23:57;22.50;96.50
2054;DHT22;1032;52.542;13.440;2023-09-07T08:26:24;22.50;96.40
2054;DHT22;1032;52.542;13.440;2023-09-07T08:28:51;22.50;96.10
2054;DHT22;1032;52.542;13.440;2023-09-07T08:31:19;22.60;96.00
2054;DHT22;1032;52.542;13.440;2023-09-07T08:33:48;22.60;95.80
2054;DHT22;1032;52.542;13.440;2023-09-07T08:36:16;22.60;95.70
2054;DHT22;1032;52.542;13.440;2023-09-07T08:38:43;22.70;95.60
2054;DHT22;1032;52.542;13.440;2023-09-07T08:41:10;22.70;95.40
2054;DHT22;1032;52.542;13.440;2023-09-07T08:43:44;22.80;95.40
2054;DHT22;1032;52.542;13.440;2023-09-07T08:46:14;22.80;95.00
2054;DHT22;1032;52.542;13.440;2023-09-07T08:48:42;22.90;94.70
2054;DHT22;1032;52.542;13.440;2023-09-07T08:51:10;22.90;94.60
2054;DHT22;1032;52.542;13.440;2023-09-07T08:53:39;22.90;94.40
2054;DHT22;1032;52.542;13.440;2023-09-07T08:56:06;23.00;94.50
2054;DHT22;1032;52.542;13.440;2023-09-07T08:58:35;23.00;94.60
2054;DHT22;1032;52.542;13.440;2023-09-07T09:01:02;23.50;93.50
2054;DHT22;1032;52.542;13.440;2023-09-07T09:03:29;23.40;93.60
2054;DHT22;1032;52.542;13.440;2023-09-07T09:05:57;23.40;93.70
2054;DHT22;1032;52.542;13.440;2023-09-07T09:08:24;23.40;93.50
2054;DHT22;1032;52.542;13.440;2023-09-07T09:10:59;23.40;93.30
2054;DHT22;1032;52.542;13.440;2023-09-07T09:13:29;23.40;93.20
2054;DHT22;1032;52.542;13.440;2023-09-07T09:15:56;23.60;92.80
2054;DHT22;1032;52.542;13.440;2023-09-07T09:18:24;23.50;92.80
2054;DHT22;1032;52.542;13.440;2023-09-07T09:20:52;23.50;92.70
2054;DHT22;1032;52.542;13.440;2023-09-07T09:23:20;23.50;92.80
2054;DHT22;1032;52.542;13.440;2023-09-07T09:25:47;23.60;92.80
2054;DHT22;1032;52.542;13.440;2023-09-07T09:28:14;23.50;92.80
2054;DHT22;1032;52.542;13.440;2023-09-07T09:30:41;23.60;92.90
2054;DHT22;1032;52.542;13.440;2023-09-07T09:33:10;23.60;92.70
2054;DHT22;1032;52.542;13.440;2023-09-07T09:35:37;23.70;92.70
2054;DHT22;1032;52.542;13.440;2023-09-07T09:38:03;23.70;92.60
2054;DHT22;1032;52.542;13.440;2023-09-07T09:40:33;23.70;92.50
2054;DHT22;1032;52.542;13.440;2023-09-07T09:43:02;23.80;92.30
2054;DHT22;1032;52.542;13.440;2023-09-07T09:45:29;23.80;92.20
2054;DHT22;1032;52.542;13.440;2023-09-07T09:47:56;23.80;91.90
2054;DHT22;1032;52.542;13.440;2023-09-07T09:50:23;23.90;91.80
2054;DHT22;1032;52.542;13.440;2023-09-07T09:52:51;23.90;91.70
2054;DHT22;1032;52.542;13.440;2023-09-07T09:55:18;24.00;91.40
2054;DHT22;1032;52.542;13.440;2023-09-07T09:57:46;24.00;91.20
2054;DHT22;1032;52.542;13.440;2023-09-07T10:00:14;24.10;91.10
2054;DHT22;1032;52.542;13.440;2023-09-07T10:03:00;24.10;91.00
2054;DHT22;1032;52.542;13.440;2023-09-07T10:05:28;24.10;91.00
2054;DHT22;1032;52.542;13.440;2023-09-07T10:08:00;24.20;91.00
2054;DHT22;1032;52.542;13.440;2023-09-07T10:10:33;24.20;90.90
2054;DHT22;1032;52.542;13.440;2023-09-07T10:13:01;24.30;90.70
2054;DHT22;1032;52.542;13.440;2023-09-07T10:15:29;24.30;90.50
2054;DHT22;1032;52.542;13.440;2023-09-07T10:18:06;24.30;90.20
2054;DHT22;1032;52.542;13.440;2023-09-07T10:20:50;24.40;89.90
2054;DHT22;1032;52.542;13.440;2023-09-07T10:23:17;24.50;89.10
2054;DHT22;1032;52.542;13.440;2023-09-07T10:25:47;24.50;87.60
2054;DHT22;1032;52.542;13.440;2023-09-07T10:28:20;24.50;86.30
2054;DHT22;1032;52.542;13.440;2023-09-07T10:30:57;24.60;85.50
2054;DHT22;1032;52.542;13.440;2023-09-07T10:33:24;24.70;85.10
2054;DHT22;1032;52.542;13.440;2023-09-07T10:35:51;24.70;85.30
2054;DHT22;1032;52.542;13.440;2023-09-07T10:38:18;24.70;84.70
2054;DHT22;1032;52.542;13.440;2023-09-07T10:40:45;24.70;84.40
2054;DHT22;1032;52.542;13.440;2023-09-07T10:43:11;24.70;84.40
2054;DHT22;1032;52.542;13.440;2023-09-07T10:45:39;24.80;84.40
2054;DHT22;1032;52.542;13.440;2023-09-07T10:48:10;24.80;83.90
2054;DHT22;1032;52.542;13.440;2023-09-07T10:50:43;24.90;83.30
2054;DHT22;1032;52.542;13.440;2023-09-07T10:53:12;24.90;83.10
2054;DHT22;1032;52.542;13.440;2023-09-07T10:55:40;24.90;83.00
2054;DHT22;1032;52.542;13.440;2023-09-07T10:58:08;25.00;82.70
2054;DHT22;1032;52.542;13.440;2023-09-07T11:00:36;25.00;82.60
2054;DHT22;1032;52.542;13.440;2023-09-07T11:03:10;25.00;82.20
2054;DHT22;1032;52.542;13.440;2023-09-07T11:05:37;25.10;81.30
2054;DHT22;1032;52.542;13.440;2023-09-07T11:08:06;25.10;81.30
2054;DHT22;1032;52.542;13.440;2023-09-07T11:10:34;25.20;80.80
2054;DHT22;1032;52.542;13.440;2023-09-07T11:13:04;25.20;80.90
2054;DHT22;1032;52.542;13.440;2023-09-07T11:15:32;25.30;81.10
2054;DHT22;1032;52.542;13.440;2023-09-07T11:18:03;25.30;81.20
2054;DHT22;1032;52.542;13.440;2023-09-07T11:20:32;25.30;81.00
2054;DHT22;1032;52.542;13.440;2023-09-07T11:22:59;25.40;80.70
2054;DHT22;1032;52.542;13.440;2023-09-07T11:25:26;25.50;80.10
2054;DHT22;1032;52.542;13.440;2023-09-07T11:27:53;25.50;78.80
2054;DHT22;1032;52.542;13.440;2023-09-07T11:30:20;25.50;78.40
2054;DHT22;1032;52.542;13.440;2023-09-07T11:32:47;25.50;78.10
2054;DHT22;1032;52.542;13.440;2023-09-07T11:35:13;25.50;78.00
2054;DHT22;1032;52.542;13.440;2023-09-07T11:37:41;25.50;77.40
2054;DHT22;1032;52.542;13.440;2023-09-07T11:40:09;25.50;76.50
2054;DHT22;1032;52.542;13.440;2023-09-07T11:42:38;25.60;76.40
2054;DHT22;1032;52.542;13.440;2023-09-07T11:45:07;25.60;75.70
2054;DHT22;1032;52.542;13.440;2023-09-07T11:47:35;25.70;75.20
2054;DHT22;1032;52.542;13.440;2023-09-07T11:50:03;25.70;75.40
2054;DHT22;1032;52.542;13.440;2023-09-07T11:52:30;25.70;75.50
2054;DHT22;1032;52.542;13.440;2023-09-07T11:54:58;25.80;75.40
2054;DHT22;1032;52.542;13.440;2023-09-07T11:57:25;25.80;75.10
2054;DHT22;1032;52.542;13.440;2023-09-07T11:59:52;25.80;74.90
2054;DHT22;1032;52.542;13.440;2023-09-07T12:02:18;25.80;75.00
2054;DHT22;1032;52.542;13.440;2023-09-07T12:04:46;25.80;74.60
2054;DHT22;1032;52.542;13.440;2023-09-07T12:07:13;25.90;73.80
2054;DHT22;1032;52.542;13.440;2023-09-07T12:09:40;25.90;72.80
2054;DHT22;1032;52.542;13.440;2023-09-07T12:12:08;26.00;72.70
2054;DHT22;1032;52.542;13.440;2023-09-07T12:14:36;26.30;71.60
2054;DHT22;1032;52.542;13.440;2023-09-07T12:17:03;26.30;72.30
2054;DHT22;1032;52.542;13.440;2023-09-07T12:19:29;26.30;72.80
2054;DHT22;1032;52.542;13.440;2023-09-07T12:21:56;26.20;71.50
2054;DHT22;1032;52.542;13.440;2023-09-07T12:24:23;26.30;71.60
2054;DHT22;1032;52.542;13.440;2023-09-07T12:26:49;26.30;71.60
2054;DHT22;1032;52.542;13.440;2023-09-07T12:29:17;26.20;71.90
2054;DHT22;1032;52.542;13.440;2023-09-07T12:31:45;26.30;72.40
2054;DHT22;1032;52.542;13.440;2023-09-07T12:34:12;26.30;72.50
2054;DHT22;1032;52.542;13.440;2023-09-07T12:36:39;26.30;72.00
2054;DHT22;1032;52.542;13.440;2023-09-07T12:39:06;26.30;71.60
2054;DHT22;1032;52.542;13.440;2023-09-07T12:41:33;26.30;71.20
2054;DHT22;1032;52.542;13.440;2023-09-07T12:43:59;26.20;71.10
2054;DHT22;1032;52.542;13.440;2023-09-07T12:46:27;26.30;71.30
2054;DHT22;1032;52.542;13.440;2023-09-07T12:48:54;26.30;71.40
2054;DHT22;1032;52.542;13.440;2023-09-07T12:51:20;26.30;71.50
2054;DHT22;1032;52.542;13.440;2023-09-07T12:53:47;26.20;71.40
2054;DHT22;1032;52.542;13.440;2023-09-07T12:56:13;26.20;70.60
2054;DHT22;1032;52.542;13.440;2023-09-07T12:58:41;26.30;69.80
2054;DHT22;1032;52.542;13.440;2023-09-07T13:01:08;26.40;69.90
2054;DHT22;1032;52.542;13.440;2023-09-07T13:03:37;26.30;70.20
2054;DHT22;1032;52.542;13.440;2023-09-07T13:06:04;26.40;70.50
2054;DHT22;1032;52.542;13.440;2023-09-07T13:08:31;26.40;71.30
2054;DHT22;1032;52.542;13.440;2023-09-07T13:10:57;26.40;70.70
2054;DHT22;1032;52.542;13.440;2023-09-07T13:13:24;26.40;70.70
2054;DHT22;1032;52.542;13.440;2023-09-07T13:15:54;26.40;70.70
2054;DHT22;1032;52.542;13.440;2023-09-07T13:18:20;26.40;70.20
2054;DHT22;1032;52.542;13.440;2023-09-07T13:20:49;26.40;70.30
2054;DHT22;1032;52.542;13.440;2023-09-07T13:23:17;26.40;70.20
2054;DHT22;1032;52.542;13.440;2023-09-07T13:25:44;26.20;69.80
2054;DHT22;1032;52.542;13.440;2023-09-07T13:28:10;26.60;69.90
2054;DHT22;1032;52.542;13.440;2023-09-07T13:30:37;26.60;68.90
2054;DHT22;1032;52.542;13.440;2023-09-07T13:33:04;26.60;68.60
2054;DHT22;1032;52.542;13.440;2023-09-07T13:35:31;26.60;68.10
2054;DHT22;1032;52.542;13.440;2023-09-07T13:37:59;26.60;68.40
2054;DHT22;1032;52.542;13.440;2023-09-07T13:40:26;26.70;68.30
2054;DHT22;1032;52.542;13.440;2023-09-07T13:42:55;26.50;68.10
2054;DHT22;1032;52.542;13.440;2023-09-07T13:45:21;26.70;67.70
2054;DHT22;1032;52.542;13.440;2023-09-07T13:47:48;26.70;67.50
2054;DHT22;1032;52.542;13.440;2023-09-07T13:50:15;26.70;67.60
2054;DHT22;1032;52.542;13.440;2023-09-07T13:52:42;26.70;67.40
2054;DHT22;1032;52.542;13.440;2023-09-07T13:55:10;26.70;67.50
2054;DHT22;1032;52.542;13.440;2023-09-07T13:57:36;26.70;66.50
2054;DHT22;1032;52.542;13.440;2023-09-07T14:00:04;26.70;66.50
2054;DHT22;1032;52.542;13.440;2023-09-07T14:02:32;26.70;66.20
2054;DHT22;1032;52.542;13.440;2023-09-07T14:04:58;26.70;66.40
2054;DHT22;1032;52.542;13.440;2023-09-07T14:07:25;26.70;66.80
2054;DHT22;1032;52.542;13.440;2023-09-07T14:09:52;26.70;67.30
2054;DHT22;1032;52.542;13.440;2023-09-07T14:12:20;26.00;66.60
2054;DHT22;1032;52.542;13.440;2023-09-07T14:14:47;26.70;66.90
2054;DHT22;1032;52.542;13.440;2023-09-07T14:17:14;26.70;67.00
2054;DHT22;1032;52.542;13.440;2023-09-07T14:19:40;26.70;66.50
2054;DHT22;1032;52.542;13.440;2023-09-07T14:22:07;26.70;66.50
2054;DHT22;1032;52.542;13.440;2023-09-07T14:24:33;26.50;66.30
2054;DHT22;1032;52.542;13.440;2023-09-07T14:27:00;26.70;66.50
2054;DHT22;1032;52.542;13.440;2023-09-07T14:29:28;26.70;65.90
2054;DHT22;1032;52.542;13.440;2023-09-07T14:31:55;26.70;65.90
2054;DHT22;1032;52.542;13.440;2023-09-07T14:34:22;26.80;64.50
2054;DHT22;1032;52.542;13.440;2023-09-07T14:36:48;26.80;63.90
2054;DHT22;1032;52.542;13.440;2023-09-07T14:39:15;26.80;64.40
2054;DHT22;1032;52.542;13.440;2023-09-07T14:41:46;26.80;64.70
2054;DHT22;1032;52.542;13.440;2023-09-07T14:44:12;26.80;65.00
2054;DHT22;1032;52.542;13.440;2023-09-07T14:46:40;26.90;66.00
2054;DHT22;1032;52.542;13.440;2023-09-07T14:49:07;26.90;64.80
2054;DHT22;1032;52.542;13.440;2023-09-07T14:51:34;26.90;64.30
2054;DHT22;1032;52.542;13.440;2023-09-07T14:54:00;26.90;64.10
2054;DHT22;1032;52.542;13.440;2023-09-07T14:56:27;26.90;65.30
2054;DHT22;1032;52.542;13.440;2023-09-07T14:58:54;26.90;64.70
2054;DHT22;1032;52.542;13.440;2023-09-07T15:01:21;26.80;64.30
2054;DHT22;1032;52.542;13.440;2023-09-07T15:03:49;26.90;63.70
2054;DHT22;1032;52.542;13.440;2023-09-07T15:06:16;26.90;63.50
2054;DHT22;1032;52.542;13.440;2023-09-07T15:08:43;26.60;63.80
2054;DHT22;1032;52.542;13.440;2023-09-07T15:11:09;26.90;63.70
2054;DHT22;1032;52.542;13.440;2023-09-07T15:13:37;26.90;63.60
2054;DHT22;1032;52.542;13.440;2023-09-07T15:16:05;26.90;63.80
2054;DHT22;1032;52.542;13.440;2023-09-07T15:18:36;26.90;64.10
2054;DHT22;1032;52.542;13.440;2023-09-07T15:21:04;26.80;64.30
2054;DHT22;1032;52.542;13.440;2023-09-07T15:23:31;26.90;64.30
2054;DHT22;1032;52.542;13.440;2023-09-07T15:25:57;26.80;64.00
2054;DHT22;1032;52.542;13.440;2023-09-07T15:28:24;26.80;64.30
2054;DHT22;1032;52.542;13.440;2023-09-07T15:30:51;26.80;64.20
2054;DHT22;1032;52.542;13.440;2023-09-07T15:33:18;26.80;64.00
2054;DHT22;1032;52.542;13.440;2023-09-07T15:35:46;26.80;63.90
2054;DHT22;1032;52.542;13.440;2023-09-07T15:38:14;26.80;64.10
2054;DHT22;1032;52.542;13.440;2023-09-07T15:40:41;26.90;64.30
2054;DHT22;1032;52.542;13.440;2023-09-07T15:43:10;26.80;64.50
2054;DHT22;1032;52.542;13.440;2023-09-07T15:45:37;26.80;64.90